Latest Coastal Weather Observations for Yanakie

IDV60701

Issued at 11:55 am EST Tuesday 2 September 2014 (issued every 10 minutes, with the page automatically refreshed every 10 minutes)

About coastal observations | Map of coastal stations | Coastal observations for VIC | Marine services | Other Formats
Station Details ID: 085301 Name: YANAKIE Lat: -38.81 Lon: 146.19 Height: 13.3 m
Data from the previous 72 hours. | See also: Recent months at Yanakie
Date/Time
EST
Temp

°C
Wind Pressure Rain
since 9am
mm
Weather Cloud Vis
km
Sea
Height
m
Swell
Dir
 
Speed
knots
Gust
knots
hPa Trend Height
m
Period
s
Dir
02/11:30am 12.5 S 13 19 1017.6 - 0.0 - - - - - - -
02/11:00am 13.1 S 12 17 1017.4 - 0.0 - - - - - - -
02/10:30am 12.4 S 10 18 1017.2 - 0.0 - - - - - - -
02/10:00am 12.4 SSE 9 14 1017.0 - 0.0 - - - - - - -
02/09:30am 12.5 S 9 14 1016.5 - 0.0 - - - - - - -
02/09:00am 11.9 SSW 9 14 1016.2 - 5.0 - - - - - - -
02/08:30am 11.8 S 9 14 1015.9 - 5.0 - - - - - - -
02/08:00am 10.9 S 9 15 1015.3 - 5.0 - - - - - - -
02/07:30am 9.9 S 7 10 1015.0 - 5.0 - - - - - - -
02/07:00am 8.8 S 7 12 1014.5 - 5.0 - - - - - - -
02/06:30am 9.5 SSW 10 12 1014.0 - 4.0 - - - - - - -
02/06:00am 9.9 SW 11 15 1013.7 - 4.0 - - - - - - -
02/05:30am 10.7 SSW 12 16 1013.3 - 4.0 - - - - - - -
02/05:00am 10.8 SSW 11 17 1012.8 - 4.0 - - - - - - -
02/04:30am 10.6 SSW 12 17 1012.5 - 4.0 - - - - - - -
02/04:00am 10.4 SW 12 17 1012.3 - 4.0 - - - - - - -
02/03:30am 10.4 SW 12 18 1012.2 - 4.0 - - - - - - -
02/03:00am 10.7 SSW 14 20 1012.1 - 4.0 - - - - - - -
02/02:30am 10.8 SSW 14 19 1011.9 - 4.0 - - - - - - -
02/02:00am 11.0 SW 15 19 1011.7 - 4.0 - - - - - - -
02/01:30am 10.9 SW 14 18 1011.5 - 4.0 - - - - - - -
02/01:00am 10.9 WSW 12 17 1011.1 - 4.0 - - - - - - -
02/12:30am 11.1 SW 13 19 1011.2 - 4.0 - - - - - - -
02/12:00am 11.1 WSW 12 18 1011.1 - 4.0 - - - - - - -
 
Date/Time
EST
Temp

°C
Wind Pressure Rain
since 9am
mm
Weather Cloud Vis
km
Sea
Height
m
Swell
Dir
 
Speed
knots
Gust
knots
hPa Trend Height
m
Period
s
Dir
01/11:30pm 11.3 SW 13 17 1010.9 - 4.0 - - - - - - -
01/11:00pm 11.2 WSW 11 14 1011.0 - 4.0 - - - - - - -
01/10:30pm 11.4 WSW 12 15 1011.0 - 4.0 - - - - - - -
01/10:00pm 11.5 WSW 11 15 1010.8 - 4.0 - - - - - - -
01/09:30pm 11.4 SW 11 15 1010.4 - 4.0 - - - - - - -
01/09:00pm 11.6 WSW 12 16 1010.4 - 4.0 - - - - - - -
01/08:30pm 11.3 SW 11 14 1009.9 - 4.0 - - - - - - -
01/08:00pm 11.5 SW 10 16 1009.9 - 4.0 - - - - - - -
01/07:30pm 11.4 WSW 9 12 1009.7 - 4.0 - - - - - - -
01/07:00pm 11.4 WSW 9 13 1009.5 - 4.0 - - - - - - -
01/06:30pm 11.5 WSW 11 15 1008.9 - 4.0 - - - - - - -
01/06:00pm 11.3 WSW 8 11 1008.4 - 3.6 Recent precip. - - - - - -
01/05:30pm 11.2 SW 11 19 1008.1 - 3.2 - - - - - - -
01/05:00pm 11.5 WNW 9 15 1007.7 - 1.2 - - - - - - -
01/04:30pm 11.6 NW 12 17 1007.3 - 1.2 - - - - - - -
01/04:00pm 11.6 NW 10 13 1007.4 - 1.2 - - - - - - -
01/03:30pm 11.9 WNW 10 16 1007.6 - 0.8 - - - - - - -
01/03:00pm 12.1 NW 10 13 1007.3 - 0.8 Rain - - - - - -
01/02:30pm 12.1 NW 11 16 1007.5 - 0.6 - - - - - - -
01/02:00pm 12.1 NW 12 17 1007.6 - 0.6 - - - - - - -
01/01:30pm 12.5 NW 14 18 1007.3 - 0.6 - - - - - - -
01/01:00pm 12.8 WNW 14 21 1007.5 - 0.4 - - - - - - -
01/12:32pm 13.8 WNW 15 25 1007.5 - 0.0 - - - - - - -
01/12:30pm 14.2 WNW 15 24 1007.4 - 0.0 - - - - - - -
01/12:00pm 15.7 WNW 16 21 1007.4 - 0.0 - - - - - - -
01/11:30am 16.6 WNW 12 18 1007.4 - 0.0 - - - - - - -
01/11:00am 15.6 W 11 16 1008.1 - 0.0 - - - - - - -
01/10:30am 15.3 WNW 7 11 1008.1 - 0.0 - - - - - - -
01/10:00am 16.1 W 8 11 1008.2 - 0.0 - - - - - - -
01/09:30am 16.6 W 5 7 1008.1 - 0.0 - - - - - - -
01/09:00am 15.4 NW 3 5 1007.8 - 0.0 - - - - - - -
01/08:30am 16.2 N 5 6 1007.6 - 0.0 - - - - - - -
01/08:00am 15.6 N 3 5 1007.7 - 0.0 - - - - - - -
01/07:30am 15.2 N 3 6 1007.8 - 0.0 - - - - - - -
01/07:00am 15.8 N 5 10 1007.2 - 0.0 - - - - - - -
01/06:30am 15.8 N 5 7 1007.3 - 0.0 - - - - - - -
01/06:00am 16.3 N 5 9 1007.2 - 0.0 - - - - - - -
01/05:30am 16.5 N 7 14 1007.8 - 0.0 - - - - - - -
01/05:00am 16.0 N 7 11 1007.9 - 0.0 - - - - - - -
01/04:30am 15.9 N 6 10 1007.8 - 0.0 - - - - - - -
01/04:00am 15.1 NNE 6 7 1007.9 - 0.0 - - - - - - -
01/03:30am 15.3 NNE 5 6 1008.3 - 0.0 - - - - - - -
01/03:00am 14.5 NE 4 7 1008.6 - 0.0 - - - - - - -
01/02:30am 13.8 ENE 5 6 1009.1 - 0.0 - - - - - - -
01/02:00am 13.7 ENE 3 5 1009.5 - 0.0 - - - - - - -
01/01:30am 14.4 E 3 5 1009.8 - 0.0 - - - - - - -
01/01:00am 14.4 ENE 4 7 1009.8 - 0.0 - - - - - - -
01/12:30am 14.3 E 4 7 1010.0 - 0.0 - - - - - - -
01/12:00am 14.8 ENE 4 6 1010.2 - 0.0 - - - - - - -
 
Date/Time
EST
Temp

°C
Wind Pressure Rain
since 9am
mm
Weather Cloud Vis
km
Sea
Height
m
Swell
Dir
 
Speed
knots
Gust
knots
hPa Trend Height
m
Period
s
Dir
31/11:30pm 14.0 ENE 6 8 1010.6 - 0.0 - - - - - - -
31/11:00pm 13.4 NE 4 5 1011.2 - 0.0 - - - - - - -
31/10:30pm 13.7 NE 5 6 1011.9 - 0.0 - - - - - - -
31/10:00pm 15.0 NE 6 9 1012.2 - 0.0 - - - - - - -
31/09:30pm 14.4 NE 5 9 1012.7 - 0.0 - - - - - - -
31/09:00pm 13.5 NE 5 6 1012.9 - 0.0 - - - - - - -
31/08:30pm 13.3 ENE 5 6 1013.1 - 0.0 - - - - - - -
31/08:00pm 14.0 ENE 5 8 1013.3 - 0.0 - - - - - - -
31/07:30pm 13.8 E 6 8 1013.3 - 0.0 - - - - - - -
31/07:00pm 13.5 ENE 4 6 1013.6 - 0.0 - - - - - - -
31/06:30pm 13.3 E 3 5 1013.7 - 0.0 - - - - - - -
31/06:00pm 14.1 E 6 8 1013.6 - 0.0 - - - - - - -
31/05:30pm 14.8 E 5 7 1013.6 - 0.0 - - - - - - -
31/05:00pm 15.2 E 4 6 1013.7 - 0.0 - - - - - - -
31/04:30pm 16.3 ENE 6 8 1013.7 - 0.0 - - - - - - -
31/04:00pm 18.2 E 6 8 1013.6 - 0.0 - - - - - - -
31/03:30pm 19.1 E 6 10 1013.8 - 0.0 - - - - - - -
31/03:00pm 20.0 NNW 7 11 1014.2 - 0.0 - - - - - - -
31/02:30pm 20.6 N 8 12 1014.5 - 0.0 - - - - - - -
31/02:00pm 20.2 NNW 7 11 1014.8 - 0.0 - - - - - - -
31/01:30pm 20.1 N 8 12 1015.1 - 0.0 - - - - - - -
31/01:00pm 19.6 NE 4 8 1015.5 - 0.0 - - - - - - -
31/12:30pm 18.9 NNE 4 6 1015.9 - 0.0 - - - - - - -
31/12:00pm 18.3 NE 5 7 1016.3 - 0.0 - - - - - - -
31/11:30am 17.8 NE 5 8 1016.9 - 0.0 - - - - - - -
31/11:00am 16.5 NE 4 7 1017.5 - 0.0 - - - - - - -
31/10:30am 15.6 ENE 4 7 1017.8 - 0.0 - - - - - - -
31/10:00am 14.7 ENE 5 6 1018.3 - 0.0 - - - - - - -
31/09:30am 13.6 NE 5 7 1018.7 - 0.0 - - - - - - -
31/09:00am 12.7 NE 4 5 1018.8 - 0.0 - - - - - - -
31/08:30am 11.4 NNE 5 7 1018.9 - 0.0 - - - - - - -
31/08:00am 10.2 NNE 4 6 1019.1 - 0.0 - - - - - - -
31/07:30am 9.1 NNE 5 6 1019.3 - 0.0 - - - - - - -
31/07:00am 7.7 NNE 3 5 1019.2 - 0.0 - - - - - - -
31/06:30am 7.9 NNE 3 4 1019.1 - 0.0 - - - - - - -
31/06:00am 8.0 NE 3 5 1018.8 - 0.0 - - - - - - -
31/05:30am 8.7 NE 3 5 1018.7 - 0.0 - - - - - - -
31/05:00am 9.2 NE 3 5 1018.8 - 0.0 - - - - - - -
31/04:30am 9.6 ENE 4 5 1018.9 - 0.0 - - - - - - -
31/04:00am 9.6 ENE 4 6 1018.8 - 0.0 - - - - - - -
31/03:30am 9.4 E 4 5 1019.1 - 0.0 - - - - - - -
31/03:00am 9.5 E 4 5 1019.2 - 0.0 - - - - - - -
31/02:30am 9.3 E 4 5 1019.7 - 0.0 - - - - - - -
31/02:00am 9.4 ENE 3 5 1019.9 - 0.0 - - - - - - -
31/01:30am 9.6 ENE 3 5 1020.2 - 0.0 - - - - - - -
31/01:00am 10.7 ENE 5 7 1020.4 - 0.0 - - - - - - -
31/12:30am 10.9 ENE 7 9 1020.7 - 0.0 - - - - - - -
31/12:00am 11.2 ENE 7 11 1021.0 - 0.0 - - - - - - -
 
Date/Time
EST
Temp

°C
Wind Pressure Rain
since 9am
mm
Weather Cloud Vis
km
Sea
Height
m
Swell
Dir
 
Speed
knots
Gust
knots
hPa Trend Height
m
Period
s
Dir
30/11:30pm 11.4 ENE 8 11 1021.4 - 0.0 - - - - - - -
30/11:00pm 11.5 ENE 7 9 1022.0 - 0.0 - - - - - - -
30/10:30pm 11.8 ENE 8 11 1022.3 - 0.0 - - - - - - -
30/10:00pm 12.0 ENE 8 13 1022.7 - 0.0 - - - - - - -
30/09:30pm 12.2 ENE 9 13 1022.7 - 0.0 - - - - - - -
30/09:00pm 12.3 ENE 10 15 1022.8 - 0.0 - - - - - - -
30/08:30pm 12.4 ENE 11 17 1022.6 - 0.0 - - - - - - -
30/08:00pm 12.6 ENE 12 17 1022.5 - 0.0 - - - - - - -
30/07:30pm 12.5 ENE 12 17 1022.6 - 0.0 - - - - - - -
30/07:00pm 12.6 ENE 12 16 1022.8 - 0.0 - - - - - - -
30/06:30pm 12.7 ENE 12 18 1022.9 - 0.0 - - - - - - -
30/06:00pm 12.6 E 7 13 1022.9 - 0.0 - - - - - - -
30/05:30pm 13.2 E 7 11 1022.7 - 0.0 - - - - - - -
30/05:00pm 13.9 E 9 13 1022.6 - 0.0 - - - - - - -
30/04:30pm 14.4 E 9 13 1022.7 - 0.0 - - - - - - -
30/04:00pm 15.0 E 10 16 1022.6 - 0.0 - - - - - - -
30/03:30pm 15.2 E 10 16 1022.7 - 0.0 - - - - - - -
30/03:00pm 15.4 E 10 16 1022.8 - 0.0 - - - - - - -
30/02:30pm 15.3 E 12 17 1023.1 - 0.0 - - - - - - -
30/02:00pm 15.3 E 13 19 1023.2 - 0.0 - - - - - - -
30/01:30pm 15.8 E 11 18 1023.5 - 0.0 - - - - - - -
30/01:00pm 16.0 E 11 18 1023.8 - 0.0 - - - - - - -
30/12:30pm 16.0 E 13 18 1024.1 - 0.0 - - - - - - -
30/12:00pm 15.6 E 13 20 1024.6 - 0.0 - - - - - - -

Other Formats:

Comma delimited format used in spreadsheet applications
http://www.bom.gov.au/fwo/IDV60701/IDV60701.94911.axf

JavaScript Object Notation format (JSON) in row-major order
http://www.bom.gov.au/fwo/IDV60701/IDV60701.94911.json